sensor_id;sensor_type;location;lat;lon;timestamp;P1;durP1;ratioP1;P2;durP2;ratioP2
47103;SDS011;32853;52.164;5.400;2023-06-22T00:01:18;9.07;;;4.13;;
47103;SDS011;32853;52.164;5.400;2023-06-22T00:03:44;9.32;;;4.25;;
47103;SDS011;32853;52.164;5.400;2023-06-22T00:06:09;7.68;;;5.15;;
47103;SDS011;32853;52.164;5.400;2023-06-22T00:08:37;11.45;;;4.57;;
47103;SDS011;32853;52.164;5.400;2023-06-22T00:11:02;7.05;;;4.43;;
47103;SDS011;32853;52.164;5.400;2023-06-22T00:13:28;7.57;;;4.35;;
47103;SDS011;32853;52.164;5.400;2023-06-22T00:15:54;9.25;;;3.60;;
47103;SDS011;32853;52.164;5.400;2023-06-22T00:18:19;5.50;;;3.80;;
47103;SDS011;32853;52.164;5.400;2023-06-22T00:20:47;6.22;;;3.80;;
47103;SDS011;32853;52.164;5.400;2023-06-22T00:23:12;7.35;;;4.28;;
47103;SDS011;32853;52.164;5.400;2023-06-22T00:25:38;5.30;;;3.38;;
47103;SDS011;32853;52.164;5.400;2023-06-22T00:28:12;8.40;;;4.35;;
47103;SDS011;32853;52.164;5.400;2023-06-22T00:30:37;7.68;;;4.10;;
47103;SDS011;32853;52.164;5.400;2023-06-22T00:33:09;7.57;;;3.80;;
47103;SDS011;32853;52.164;5.400;2023-06-22T00:35:37;8.00;;;3.88;;
47103;SDS011;32853;52.164;5.400;2023-06-22T00:38:02;7.85;;;4.20;;
47103;SDS011;32853;52.164;5.400;2023-06-22T00:42:58;10.55;;;5.10;;
47103;SDS011;32853;52.164;5.400;2023-06-22T00:45:25;8.25;;;4.65;;
47103;SDS011;32853;52.164;5.400;2023-06-22T00:50:42;7.68;;;4.30;;
47103;SDS011;32853;52.164;5.400;2023-06-22T00:53:08;10.52;;;4.07;;
47103;SDS011;32853;52.164;5.400;2023-06-22T01:01:09;9.18;;;3.40;;
47103;SDS011;32853;52.164;5.400;2023-06-22T01:03:51;5.68;;;3.38;;
47103;SDS011;32853;52.164;5.400;2023-06-22T01:06:26;6.43;;;3.50;;
47103;SDS011;32853;52.164;5.400;2023-06-22T01:09:38;6.68;;;3.40;;
47103;SDS011;32853;52.164;5.400;2023-06-22T01:11:59;10.93;;;3.97;;
47103;SDS011;32853;52.164;5.400;2023-06-22T01:14:32;5.65;;;3.15;;
47103;SDS011;32853;52.164;5.400;2023-06-22T01:17:05;7.00;;;3.17;;
47103;SDS011;32853;52.164;5.400;2023-06-22T01:19:48;6.93;;;3.97;;
47103;SDS011;32853;52.164;5.400;2023-06-22T01:22:20;8.27;;;4.00;;
47103;SDS011;32853;52.164;5.400;2023-06-22T01:33:11;7.32;;;4.05;;
47103;SDS011;32853;52.164;5.400;2023-06-22T01:35:38;9.95;;;4.18;;
47103;SDS011;32853;52.164;5.400;2023-06-22T01:38:05;5.28;;;3.47;;
47103;SDS011;32853;52.164;5.400;2023-06-22T01:40:33;6.88;;;4.20;;
47103;SDS011;32853;52.164;5.400;2023-06-22T01:43:00;9.73;;;4.18;;
47103;SDS011;32853;52.164;5.400;2023-06-22T01:45:27;7.35;;;3.70;;
47103;SDS011;32853;52.164;5.400;2023-06-22T01:47:53;7.88;;;4.18;;
47103;SDS011;32853;52.164;5.400;2023-06-22T01:50:20;7.68;;;4.22;;
47103;SDS011;32853;52.164;5.400;2023-06-22T01:52:46;7.80;;;4.85;;
47103;SDS011;32853;52.164;5.400;2023-06-22T01:55:11;6.57;;;4.10;;
47103;SDS011;32853;52.164;5.400;2023-06-22T01:57:37;7.93;;;4.60;;
47103;SDS011;32853;52.164;5.400;2023-06-22T02:00:07;7.75;;;4.10;;
47103;SDS011;32853;52.164;5.400;2023-06-22T02:02:38;9.02;;;4.85;;
47103;SDS011;32853;52.164;5.400;2023-06-22T02:05:10;6.90;;;4.70;;
47103;SDS011;32853;52.164;5.400;2023-06-22T02:07:47;10.77;;;5.70;;
47103;SDS011;32853;52.164;5.400;2023-06-22T02:10:18;13.85;;;5.45;;
47103;SDS011;32853;52.164;5.400;2023-06-22T02:12:45;9.25;;;5.38;;
47103;SDS011;32853;52.164;5.400;2023-06-22T02:15:12;13.18;;;7.13;;
47103;SDS011;32853;52.164;5.400;2023-06-22T02:17:39;9.18;;;4.70;;
47103;SDS011;32853;52.164;5.400;2023-06-22T02:20:11;9.63;;;5.03;;
47103;SDS011;32853;52.164;5.400;2023-06-22T02:22:38;6.18;;;4.32;;
47103;SDS011;32853;52.164;5.400;2023-06-22T02:25:19;10.20;;;4.80;;
47103;SDS011;32853;52.164;5.400;2023-06-22T02:27:57;8.15;;;4.78;;
47103;SDS011;32853;52.164;5.400;2023-06-22T02:30:29;8.10;;;4.90;;
47103;SDS011;32853;52.164;5.400;2023-06-22T02:32:54;8.95;;;5.85;;
47103;SDS011;32853;52.164;5.400;2023-06-22T02:35:27;8.45;;;5.65;;
47103;SDS011;32853;52.164;5.400;2023-06-22T02:38:10;6.82;;;4.75;;
47103;SDS011;32853;52.164;5.400;2023-06-22T02:40:36;7.88;;;4.88;;
47103;SDS011;32853;52.164;5.400;2023-06-22T02:43:03;8.18;;;5.47;;
47103;SDS011;32853;52.164;5.400;2023-06-22T02:45:28;8.07;;;5.18;;
47103;SDS011;32853;52.164;5.400;2023-06-22T02:47:55;7.22;;;4.88;;
47103;SDS011;32853;52.164;5.400;2023-06-22T02:50:21;7.68;;;4.88;;
47103;SDS011;32853;52.164;5.400;2023-06-22T02:52:46;11.10;;;5.28;;
47103;SDS011;32853;52.164;5.400;2023-06-22T02:55:13;7.00;;;4.70;;
47103;SDS011;32853;52.164;5.400;2023-06-22T02:57:40;10.30;;;5.68;;
47103;SDS011;32853;52.164;5.400;2023-06-22T03:00:10;12.35;;;5.40;;
47103;SDS011;32853;52.164;5.400;2023-06-22T03:02:49;8.27;;;5.40;;
47103;SDS011;32853;52.164;5.400;2023-06-22T03:05:24;9.40;;;5.75;;
47103;SDS011;32853;52.164;5.400;2023-06-22T03:07:51;10.52;;;5.35;;
47103;SDS011;32853;52.164;5.400;2023-06-22T03:10:20;11.57;;;6.38;;
47103;SDS011;32853;52.164;5.400;2023-06-22T03:12:50;9.77;;;6.05;;
47103;SDS011;32853;52.164;5.400;2023-06-22T03:15:15;11.50;;;6.38;;
47103;SDS011;32853;52.164;5.400;2023-06-22T03:17:42;13.70;;;6.20;;
47103;SDS011;32853;52.164;5.400;2023-06-22T03:20:08;9.75;;;5.97;;
47103;SDS011;32853;52.164;5.400;2023-06-22T03:22:39;13.85;;;5.97;;
47103;SDS011;32853;52.164;5.400;2023-06-22T03:25:05;8.13;;;5.95;;
47103;SDS011;32853;52.164;5.400;2023-06-22T03:27:38;8.23;;;5.40;;
47103;SDS011;32853;52.164;5.400;2023-06-22T03:30:05;12.63;;;6.65;;
47103;SDS011;32853;52.164;5.400;2023-06-22T03:32:32;11.35;;;5.47;;
47103;SDS011;32853;52.164;5.400;2023-06-22T03:34:57;11.77;;;5.40;;
47103;SDS011;32853;52.164;5.400;2023-06-22T03:37:24;9.52;;;5.70;;
47103;SDS011;32853;52.164;5.400;2023-06-22T03:39:50;8.25;;;5.75;;
47103;SDS011;32853;52.164;5.400;2023-06-22T03:42:19;11.73;;;6.10;;
47103;SDS011;32853;52.164;5.400;2023-06-22T03:44:55;11.65;;;6.40;;
47103;SDS011;32853;52.164;5.400;2023-06-22T03:47:20;12.07;;;6.85;;
47103;SDS011;32853;52.164;5.400;2023-06-22T03:49:45;7.68;;;5.40;;
47103;SDS011;32853;52.164;5.400;2023-06-22T03:52:11;10.20;;;5.70;;
47103;SDS011;32853;52.164;5.400;2023-06-22T03:54:36;10.27;;;6.68;;
47103;SDS011;32853;52.164;5.400;2023-06-22T03:57:11;9.82;;;5.82;;
47103;SDS011;32853;52.164;5.400;2023-06-22T03:59:37;8.57;;;5.70;;
47103;SDS011;32853;52.164;5.400;2023-06-22T04:02:03;9.90;;;6.82;;
47103;SDS011;32853;52.164;5.400;2023-06-22T04:04:29;10.68;;;6.75;;
47103;SDS011;32853;52.164;5.400;2023-06-22T04:06:58;12.63;;;6.75;;
47103;SDS011;32853;52.164;5.400;2023-06-22T04:09:23;10.10;;;7.22;;
47103;SDS011;32853;52.164;5.400;2023-06-22T04:12:03;10.95;;;6.47;;
47103;SDS011;32853;52.164;5.400;2023-06-22T04:14:32;10.88;;;6.75;;
47103;SDS011;32853;52.164;5.400;2023-06-22T04:17:13;14.20;;;7.03;;
47103;SDS011;32853;52.164;5.400;2023-06-22T04:19:43;10.15;;;7.28;;
47103;SDS011;32853;52.164;5.400;2023-06-22T04:22:10;12.07;;;7.68;;
47103;SDS011;32853;52.164;5.400;2023-06-22T04:24:36;12.48;;;8.30;;
47103;SDS011;32853;52.164;5.400;2023-06-22T04:29:42;18.50;;;9.00;;
47103;SDS011;32853;52.164;5.400;2023-06-22T04:32:16;18.55;;;9.02;;
47103;SDS011;32853;52.164;5.400;2023-06-22T04:34:44;12.63;;;8.48;;
47103;SDS011;32853;52.164;5.400;2023-06-22T04:37:20;13.02;;;8.98;;
47103;SDS011;32853;52.164;5.400;2023-06-22T04:39:48;20.45;;;10.35;;
47103;SDS011;32853;52.164;5.400;2023-06-22T04:42:14;22.25;;;10.50;;
47103;SDS011;32853;52.164;5.400;2023-06-22T04:44:40;16.20;;;9.93;;
47103;SDS011;32853;52.164;5.400;2023-06-22T04:47:07;20.60;;;10.95;;
47103;SDS011;32853;52.164;5.400;2023-06-22T04:49:36;20.02;;;10.48;;
47103;SDS011;32853;52.164;5.400;2023-06-22T04:52:07;19.10;;;10.57;;
47103;SDS011;32853;52.164;5.400;2023-06-22T04:54:37;19.50;;;10.43;;
47103;SDS011;32853;52.164;5.400;2023-06-22T04:57:04;24.70;;;12.30;;
47103;SDS011;32853;52.164;5.400;2023-06-22T04:59:42;21.23;;;11.73;;
47103;SDS011;32853;52.164;5.400;2023-06-22T05:02:07;18.17;;;10.60;;
47103;SDS011;32853;52.164;5.400;2023-06-22T05:04:43;19.55;;;9.88;;
47103;SDS011;32853;52.164;5.400;2023-06-22T05:07:13;14.10;;;10.10;;
47103;SDS011;32853;52.164;5.400;2023-06-22T05:09:38;17.67;;;10.18;;
47103;SDS011;32853;52.164;5.400;2023-06-22T05:12:14;22.88;;;11.63;;
47103;SDS011;32853;52.164;5.400;2023-06-22T05:14:50;20.45;;;12.40;;
47103;SDS011;32853;52.164;5.400;2023-06-22T05:17:19;26.83;;;13.20;;
47103;SDS011;32853;52.164;5.400;2023-06-22T05:19:50;22.40;;;13.30;;
47103;SDS011;32853;52.164;5.400;2023-06-22T05:22:15;23.33;;;12.93;;
47103;SDS011;32853;52.164;5.400;2023-06-22T05:24:46;25.77;;;13.75;;
47103;SDS011;32853;52.164;5.400;2023-06-22T05:27:14;29.40;;;14.45;;
47103;SDS011;32853;52.164;5.400;2023-06-22T05:29:42;23.38;;;15.10;;
47103;SDS011;32853;52.164;5.400;2023-06-22T05:32:08;26.98;;;15.07;;
47103;SDS011;32853;52.164;5.400;2023-06-22T05:39:45;25.27;;;15.13;;
47103;SDS011;32853;52.164;5.400;2023-06-22T05:42:10;27.67;;;17.10;;
47103;SDS011;32853;52.164;5.400;2023-06-22T05:44:35;29.63;;;17.25;;
47103;SDS011;32853;52.164;5.400;2023-06-22T05:47:02;32.33;;;16.00;;
47103;SDS011;32853;52.164;5.400;2023-06-22T05:49:27;33.60;;;17.80;;
47103;SDS011;32853;52.164;5.400;2023-06-22T05:51:57;31.60;;;16.13;;
47103;SDS011;32853;52.164;5.400;2023-06-22T05:54:23;32.95;;;17.13;;
47103;SDS011;32853;52.164;5.400;2023-06-22T05:56:50;28.35;;;16.33;;
47103;SDS011;32853;52.164;5.400;2023-06-22T05:59:15;28.30;;;17.13;;
47103;SDS011;32853;52.164;5.400;2023-06-22T06:01:41;37.22;;;17.27;;
47103;SDS011;32853;52.164;5.400;2023-06-22T06:04:07;30.50;;;17.95;;
47103;SDS011;32853;52.164;5.400;2023-06-22T06:06:40;25.70;;;16.55;;
47103;SDS011;32853;52.164;5.400;2023-06-22T06:09:09;30.05;;;17.15;;
47103;SDS011;32853;52.164;5.400;2023-06-22T06:11:40;26.23;;;15.25;;
47103;SDS011;32853;52.164;5.400;2023-06-22T06:14:06;26.75;;;14.65;;
47103;SDS011;32853;52.164;5.400;2023-06-22T06:16:31;21.00;;;14.77;;
47103;SDS011;32853;52.164;5.400;2023-06-22T06:18:57;30.70;;;17.50;;
47103;SDS011;32853;52.164;5.400;2023-06-22T06:21:23;26.92;;;15.45;;
47103;SDS011;32853;52.164;5.400;2023-06-22T06:23:49;25.15;;;15.80;;
47103;SDS011;32853;52.164;5.400;2023-06-22T06:26:15;21.92;;;14.38;;
47103;SDS011;32853;52.164;5.400;2023-06-22T06:28:47;27.13;;;14.60;;
47103;SDS011;32853;52.164;5.400;2023-06-22T06:31:17;24.77;;;13.98;;
47103;SDS011;32853;52.164;5.400;2023-06-22T06:33:43;26.15;;;14.85;;
47103;SDS011;32853;52.164;5.400;2023-06-22T06:36:14;23.17;;;14.90;;
47103;SDS011;32853;52.164;5.400;2023-06-22T06:38:40;26.02;;;13.30;;
47103;SDS011;32853;52.164;5.400;2023-06-22T06:41:05;21.50;;;14.77;;
47103;SDS011;32853;52.164;5.400;2023-06-22T06:43:31;26.25;;;14.90;;
47103;SDS011;32853;52.164;5.400;2023-06-22T06:45:56;25.58;;;14.07;;
47103;SDS011;32853;52.164;5.400;2023-06-22T06:48:21;25.63;;;14.80;;
47103;SDS011;32853;52.164;5.400;2023-06-22T06:50:47;22.38;;;14.68;;
47103;SDS011;32853;52.164;5.400;2023-06-22T06:53:12;25.92;;;14.68;;
47103;SDS011;32853;52.164;5.400;2023-06-22T06:55:37;24.00;;;13.52;;
47103;SDS011;32853;52.164;5.400;2023-06-22T06:58:03;23.23;;;12.63;;
47103;SDS011;32853;52.164;5.400;2023-06-22T07:00:32;23.33;;;13.88;;
47103;SDS011;32853;52.164;5.400;2023-06-22T07:02:58;22.27;;;13.90;;
47103;SDS011;32853;52.164;5.400;2023-06-22T07:05:23;20.60;;;13.23;;
47103;SDS011;32853;52.164;5.400;2023-06-22T07:07:48;22.27;;;13.27;;
47103;SDS011;32853;52.164;5.400;2023-06-22T07:10:14;23.67;;;13.82;;
47103;SDS011;32853;52.164;5.400;2023-06-22T07:12:40;25.48;;;13.38;;
47103;SDS011;32853;52.164;5.400;2023-06-22T07:15:09;18.20;;;11.65;;
47103;SDS011;32853;52.164;5.400;2023-06-22T07:17:35;17.58;;;11.60;;
47103;SDS011;32853;52.164;5.400;2023-06-22T07:20:01;18.98;;;11.60;;
47103;SDS011;32853;52.164;5.400;2023-06-22T07:22:29;21.00;;;10.40;;
47103;SDS011;32853;52.164;5.400;2023-06-22T07:24:54;18.23;;;10.57;;
47103;SDS011;32853;52.164;5.400;2023-06-22T07:27:19;14.93;;;10.23;;
47103;SDS011;32853;52.164;5.400;2023-06-22T07:29:46;15.45;;;9.65;;
47103;SDS011;32853;52.164;5.400;2023-06-22T07:32:11;14.85;;;9.70;;
47103;SDS011;32853;52.164;5.400;2023-06-22T07:34:37;18.48;;;9.82;;
47103;SDS011;32853;52.164;5.400;2023-06-22T07:37:03;14.48;;;9.60;;
47103;SDS011;32853;52.164;5.400;2023-06-22T07:39:32;16.13;;;8.20;;
47103;SDS011;32853;52.164;5.400;2023-06-22T07:41:58;15.10;;;8.38;;
47103;SDS011;32853;52.164;5.400;2023-06-22T07:44:23;16.65;;;8.73;;
47103;SDS011;32853;52.164;5.400;2023-06-22T07:46:49;12.25;;;8.35;;
47103;SDS011;32853;52.164;5.400;2023-06-22T07:52:00;18.10;;;9.18;;
47103;SDS011;32853;52.164;5.400;2023-06-22T07:57:23;13.15;;;8.15;;
47103;SDS011;32853;52.164;5.400;2023-06-22T08:00:03;13.82;;;7.85;;
47103;SDS011;32853;52.164;5.400;2023-06-22T08:02:37;12.57;;;8.35;;
47103;SDS011;32853;52.164;5.400;2023-06-22T08:05:02;12.77;;;7.38;;
47103;SDS011;32853;52.164;5.400;2023-06-22T08:07:29;12.70;;;8.02;;
47103;SDS011;32853;52.164;5.400;2023-06-22T08:12:32;12.48;;;7.30;;
47103;SDS011;32853;52.164;5.400;2023-06-22T08:14:58;12.38;;;7.15;;
47103;SDS011;32853;52.164;5.400;2023-06-22T08:17:23;14.00;;;7.03;;
47103;SDS011;32853;52.164;5.400;2023-06-22T08:22:18;8.52;;;6.53;;
47103;SDS011;32853;52.164;5.400;2023-06-22T08:24:44;8.90;;;6.10;;
47103;SDS011;32853;52.164;5.400;2023-06-22T08:27:19;9.40;;;6.57;;
47103;SDS011;32853;52.164;5.400;2023-06-22T08:29:47;8.35;;;6.35;;
47103;SDS011;32853;52.164;5.400;2023-06-22T08:32:14;10.85;;;6.28;;
47103;SDS011;32853;52.164;5.400;2023-06-22T08:34:40;8.48;;;5.43;;
47103;SDS011;32853;52.164;5.400;2023-06-22T08:37:14;7.68;;;5.13;;
47103;SDS011;32853;52.164;5.400;2023-06-22T08:39:48;8.90;;;5.10;;
47103;SDS011;32853;52.164;5.400;2023-06-22T08:42:17;6.80;;;4.93;;
47103;SDS011;32853;52.164;5.400;2023-06-22T08:44:51;10.07;;;4.22;;
47103;SDS011;32853;52.164;5.400;2023-06-22T08:47:34;12.00;;;7.10;;
47103;SDS011;32853;52.164;5.400;2023-06-22T08:50:08;8.73;;;5.07;;
47103;SDS011;32853;52.164;5.400;2023-06-22T08:55:52;7.95;;;4.30;;
47103;SDS011;32853;52.164;5.400;2023-06-22T09:01:17;7.18;;;2.75;;
47103;SDS011;32853;52.164;5.400;2023-06-22T09:03:48;5.40;;;2.85;;
47103;SDS011;32853;52.164;5.400;2023-06-22T09:06:31;4.80;;;3.30;;
47103;SDS011;32853;52.164;5.400;2023-06-22T09:09:23;8.52;;;3.28;;
47103;SDS011;32853;52.164;5.400;2023-06-22T09:12:00;2.33;;;1.73;;
47103;SDS011;32853;52.164;5.400;2023-06-22T09:14:40;7.95;;;2.30;;
47103;SDS011;32853;52.164;5.400;2023-06-22T09:17:12;7.78;;;2.80;;
47103;SDS011;32853;52.164;5.400;2023-06-22T09:19:39;8.57;;;2.67;;
47103;SDS011;32853;52.164;5.400;2023-06-22T09:22:16;3.28;;;2.38;;
47103;SDS011;32853;52.164;5.400;2023-06-22T09:24:54;4.57;;;1.98;;
47103;SDS011;32853;52.164;5.400;2023-06-22T09:27:22;7.25;;;3.60;;
47103;SDS011;32853;52.164;5.400;2023-06-22T09:30:00;12.43;;;3.42;;
47103;SDS011;32853;52.164;5.400;2023-06-22T09:32:25;8.63;;;3.33;;
47103;SDS011;32853;52.164;5.400;2023-06-22T09:34:51;5.78;;;3.38;;
47103;SDS011;32853;52.164;5.400;2023-06-22T09:37:18;9.95;;;4.00;;
47103;SDS011;32853;52.164;5.400;2023-06-22T09:39:43;5.03;;;3.05;;
47103;SDS011;32853;52.164;5.400;2023-06-22T09:42:11;6.00;;;2.80;;
47103;SDS011;32853;52.164;5.400;2023-06-22T09:44:38;5.90;;;3.13;;
47103;SDS011;32853;52.164;5.400;2023-06-22T09:47:04;5.88;;;2.80;;
47103;SDS011;32853;52.164;5.400;2023-06-22T09:49:39;3.75;;;2.60;;
47103;SDS011;32853;52.164;5.400;2023-06-22T09:52:12;4.00;;;2.58;;
47103;SDS011;32853;52.164;5.400;2023-06-22T09:54:38;3.42;;;1.65;;
47103;SDS011;32853;52.164;5.400;2023-06-22T09:57:03;3.70;;;2.42;;
47103;SDS011;32853;52.164;5.400;2023-06-22T09:59:43;3.42;;;2.03;;
47103;SDS011;32853;52.164;5.400;2023-06-22T10:02:09;4.10;;;2.45;;
47103;SDS011;32853;52.164;5.400;2023-06-22T10:04:41;4.45;;;1.85;;
47103;SDS011;32853;52.164;5.400;2023-06-22T10:09:35;6.97;;;2.05;;
47103;SDS011;32853;52.164;5.400;2023-06-22T10:12:01;3.38;;;2.20;;
47103;SDS011;32853;52.164;5.400;2023-06-22T10:14:27;4.72;;;2.42;;
47103;SDS011;32853;52.164;5.400;2023-06-22T10:16:54;3.80;;;1.80;;
47103;SDS011;32853;52.164;5.400;2023-06-22T10:19:20;4.70;;;2.47;;
47103;SDS011;32853;52.164;5.400;2023-06-22T10:21:50;5.35;;;2.08;;
47103;SDS011;32853;52.164;5.400;2023-06-22T10:24:16;4.60;;;2.33;;
47103;SDS011;32853;52.164;5.400;2023-06-22T10:26:42;5.13;;;1.85;;
47103;SDS011;32853;52.164;5.400;2023-06-22T10:29:09;5.40;;;1.98;;
47103;SDS011;32853;52.164;5.400;2023-06-22T10:31:35;3.50;;;2.13;;
47103;SDS011;32853;52.164;5.400;2023-06-22T10:34:00;3.10;;;1.98;;
47103;SDS011;32853;52.164;5.400;2023-06-22T10:36:26;3.22;;;1.40;;
47103;SDS011;32853;52.164;5.400;2023-06-22T10:38:51;5.65;;;3.47;;
47103;SDS011;32853;52.164;5.400;2023-06-22T10:41:18;10.73;;;5.13;;
47103;SDS011;32853;52.164;5.400;2023-06-22T10:43:44;9.57;;;5.85;;
47103;SDS011;32853;52.164;5.400;2023-06-22T10:46:12;7.85;;;5.85;;
47103;SDS011;32853;52.164;5.400;2023-06-22T10:48:48;10.93;;;6.65;;
47103;SDS011;32853;52.164;5.400;2023-06-22T10:51:16;9.32;;;5.15;;
47103;SDS011;32853;52.164;5.400;2023-06-22T10:53:42;5.57;;;3.78;;
47103;SDS011;32853;52.164;5.400;2023-06-22T10:56:15;8.55;;;5.20;;
47103;SDS011;32853;52.164;5.400;2023-06-22T10:58:45;9.85;;;5.40;;
47103;SDS011;32853;52.164;5.400;2023-06-22T11:04:18;8.80;;;6.07;;
47103;SDS011;32853;52.164;5.400;2023-06-22T11:06:49;8.70;;;6.10;;
47103;SDS011;32853;52.164;5.400;2023-06-22T11:09:17;9.43;;;5.78;;
47103;SDS011;32853;52.164;5.400;2023-06-22T11:12:05;7.65;;;6.00;;
47103;SDS011;32853;52.164;5.400;2023-06-22T11:14:31;11.68;;;5.72;;
47103;SDS011;32853;52.164;5.400;2023-06-22T11:16:58;8.38;;;6.45;;
47103;SDS011;32853;52.164;5.400;2023-06-22T11:19:36;13.82;;;6.35;;
47103;SDS011;32853;52.164;5.400;2023-06-22T11:22:05;14.80;;;6.63;;
47103;SDS011;32853;52.164;5.400;2023-06-22T11:24:32;9.02;;;5.88;;
47103;SDS011;32853;52.164;5.400;2023-06-22T11:27:04;10.27;;;6.38;;
47103;SDS011;32853;52.164;5.400;2023-06-22T11:29:33;9.85;;;6.05;;
47103;SDS011;32853;52.164;5.400;2023-06-22T11:32:07;10.73;;;6.45;;
47103;SDS011;32853;52.164;5.400;2023-06-22T11:34:33;9.77;;;5.88;;
47103;SDS011;32853;52.164;5.400;2023-06-22T11:36:59;10.35;;;6.38;;
47103;SDS011;32853;52.164;5.400;2023-06-22T11:39:25;15.40;;;7.20;;
47103;SDS011;32853;52.164;5.400;2023-06-22T11:41:53;11.20;;;6.63;;
47103;SDS011;32853;52.164;5.400;2023-06-22T11:44:25;12.20;;;6.40;;
47103;SDS011;32853;52.164;5.400;2023-06-22T11:49:32;10.82;;;6.82;;
47103;SDS011;32853;52.164;5.400;2023-06-22T11:52:05;17.90;;;6.72;;
47103;SDS011;32853;52.164;5.400;2023-06-22T11:54:31;10.38;;;6.90;;
47103;SDS011;32853;52.164;5.400;2023-06-22T11:56:57;9.80;;;7.00;;
47103;SDS011;32853;52.164;5.400;2023-06-22T11:59:22;14.07;;;5.80;;
47103;SDS011;32853;52.164;5.400;2023-06-22T12:01:57;9.60;;;6.30;;
47103;SDS011;32853;52.164;5.400;2023-06-22T12:04:39;9.27;;;6.53;;
47103;SDS011;32853;52.164;5.400;2023-06-22T12:07:07;10.32;;;6.93;;
47103;SDS011;32853;52.164;5.400;2023-06-22T12:09:33;9.02;;;5.63;;
47103;SDS011;32853;52.164;5.400;2023-06-22T12:12:01;9.45;;;6.47;;
47103;SDS011;32853;52.164;5.400;2023-06-22T12:14:27;14.15;;;6.38;;
47103;SDS011;32853;52.164;5.400;2023-06-22T12:16:55;9.73;;;6.45;;
47103;SDS011;32853;52.164;5.400;2023-06-22T12:19:24;8.65;;;6.07;;
47103;SDS011;32853;52.164;5.400;2023-06-22T12:21:54;9.27;;;5.93;;
47103;SDS011;32853;52.164;5.400;2023-06-22T12:24:19;12.60;;;5.80;;
47103;SDS011;32853;52.164;5.400;2023-06-22T12:26:45;7.95;;;5.72;;
47103;SDS011;32853;52.164;5.400;2023-06-22T12:29:11;10.88;;;5.30;;
47103;SDS011;32853;52.164;5.400;2023-06-22T12:34:10;11.18;;;5.82;;
47103;SDS011;32853;52.164;5.400;2023-06-22T12:36:40;12.55;;;4.63;;
47103;SDS011;32853;52.164;5.400;2023-06-22T12:39:05;10.32;;;5.10;;
47103;SDS011;32853;52.164;5.400;2023-06-22T12:41:31;8.27;;;4.57;;
47103;SDS011;32853;52.164;5.400;2023-06-22T12:44:00;14.27;;;5.30;;
47103;SDS011;32853;52.164;5.400;2023-06-22T12:46:31;7.13;;;5.32;;
47103;SDS011;32853;52.164;5.400;2023-06-22T12:49:02;7.32;;;5.65;;
47103;SDS011;32853;52.164;5.400;2023-06-22T12:51:29;8.35;;;5.22;;
47103;SDS011;32853;52.164;5.400;2023-06-22T12:53:54;9.75;;;4.90;;
47103;SDS011;32853;52.164;5.400;2023-06-22T12:56:22;8.75;;;5.30;;
47103;SDS011;32853;52.164;5.400;2023-06-22T12:58:50;8.80;;;5.03;;
47103;SDS011;32853;52.164;5.400;2023-06-22T13:04:04;8.93;;;4.88;;
47103;SDS011;32853;52.164;5.400;2023-06-22T13:06:30;10.30;;;5.05;;
47103;SDS011;32853;52.164;5.400;2023-06-22T13:08:55;9.00;;;4.32;;
47103;SDS011;32853;52.164;5.400;2023-06-22T13:11:21;7.88;;;5.32;;
47103;SDS011;32853;52.164;5.400;2023-06-22T13:13:46;6.75;;;4.82;;
47103;SDS011;32853;52.164;5.400;2023-06-22T13:16:12;12.93;;;4.55;;
47103;SDS011;32853;52.164;5.400;2023-06-22T13:18:38;9.25;;;5.57;;
47103;SDS011;32853;52.164;5.400;2023-06-22T13:21:03;7.50;;;5.25;;
47103;SDS011;32853;52.164;5.400;2023-06-22T13:23:29;7.90;;;5.68;;
47103;SDS011;32853;52.164;5.400;2023-06-22T13:25:54;9.55;;;5.63;;
47103;SDS011;32853;52.164;5.400;2023-06-22T13:28:20;9.25;;;5.47;;
47103;SDS011;32853;52.164;5.400;2023-06-22T13:30:46;8.30;;;6.15;;
47103;SDS011;32853;52.164;5.400;2023-06-22T13:33:12;12.65;;;6.15;;
47103;SDS011;32853;52.164;5.400;2023-06-22T13:35:38;12.73;;;6.28;;
47103;SDS011;32853;52.164;5.400;2023-06-22T13:38:03;22.17;;;6.70;;
47103;SDS011;32853;52.164;5.400;2023-06-22T13:40:29;10.10;;;6.47;;
47103;SDS011;32853;52.164;5.400;2023-06-22T13:42:55;10.45;;;6.30;;
47103;SDS011;32853;52.164;5.400;2023-06-22T13:45:21;9.75;;;6.57;;
47103;SDS011;32853;52.164;5.400;2023-06-22T13:47:46;8.85;;;5.95;;
47103;SDS011;32853;52.164;5.400;2023-06-22T13:50:12;9.80;;;6.20;;
47103;SDS011;32853;52.164;5.400;2023-06-22T13:52:40;12.95;;;6.05;;
47103;SDS011;32853;52.164;5.400;2023-06-22T13:55:06;10.57;;;6.65;;
47103;SDS011;32853;52.164;5.400;2023-06-22T13:57:34;14.23;;;6.63;;
47103;SDS011;32853;52.164;5.400;2023-06-22T14:00:00;11.35;;;6.47;;
47103;SDS011;32853;52.164;5.400;2023-06-22T14:02:26;10.40;;;6.95;;
47103;SDS011;32853;52.164;5.400;2023-06-22T14:04:51;11.02;;;6.57;;
47103;SDS011;32853;52.164;5.400;2023-06-22T14:07:17;10.07;;;7.10;;
47103;SDS011;32853;52.164;5.400;2023-06-22T14:09:44;9.48;;;6.57;;
47103;SDS011;32853;52.164;5.400;2023-06-22T14:12:10;9.55;;;6.43;;
47103;SDS011;32853;52.164;5.400;2023-06-22T14:14:36;11.75;;;7.47;;
47103;SDS011;32853;52.164;5.400;2023-06-22T14:17:01;14.77;;;8.23;;
47103;SDS011;32853;52.164;5.400;2023-06-22T14:19:26;13.23;;;6.80;;
47103;SDS011;32853;52.164;5.400;2023-06-22T14:21:52;9.93;;;7.70;;
47103;SDS011;32853;52.164;5.400;2023-06-22T14:24:17;12.82;;;7.85;;
47103;SDS011;32853;52.164;5.400;2023-06-22T14:26:42;11.68;;;7.40;;
47103;SDS011;32853;52.164;5.400;2023-06-22T14:29:08;12.60;;;8.02;;
47103;SDS011;32853;52.164;5.400;2023-06-22T14:31:33;9.65;;;7.75;;
47103;SDS011;32853;52.164;5.400;2023-06-22T14:33:59;10.65;;;7.90;;
47103;SDS011;32853;52.164;5.400;2023-06-22T14:36:25;10.93;;;8.00;;
47103;SDS011;32853;52.164;5.400;2023-06-22T14:38:57;13.88;;;8.38;;
47103;SDS011;32853;52.164;5.400;2023-06-22T14:41:22;12.23;;;8.40;;
47103;SDS011;32853;52.164;5.400;2023-06-22T14:43:48;11.65;;;8.20;;
47103;SDS011;32853;52.164;5.400;2023-06-22T14:46:15;14.52;;;7.82;;
47103;SDS011;32853;52.164;5.400;2023-06-22T14:48:41;12.82;;;8.95;;
47103;SDS011;32853;52.164;5.400;2023-06-22T14:51:07;18.35;;;8.70;;
47103;SDS011;32853;52.164;5.400;2023-06-22T14:53:36;11.73;;;8.40;;
47103;SDS011;32853;52.164;5.400;2023-06-22T14:56:05;15.65;;;9.00;;
47103;SDS011;32853;52.164;5.400;2023-06-22T14:58:31;12.85;;;8.23;;
47103;SDS011;32853;52.164;5.400;2023-06-22T15:01:03;11.95;;;8.20;;
47103;SDS011;32853;52.164;5.400;2023-06-22T15:03:32;12.45;;;8.20;;
47103;SDS011;32853;52.164;5.400;2023-06-22T15:06:01;12.38;;;8.50;;
47103;SDS011;32853;52.164;5.400;2023-06-22T15:08:26;13.32;;;7.43;;
47103;SDS011;32853;52.164;5.400;2023-06-22T15:10:52;11.70;;;7.10;;
47103;SDS011;32853;52.164;5.400;2023-06-22T15:13:19;12.13;;;7.65;;
47103;SDS011;32853;52.164;5.400;2023-06-22T15:15:48;14.55;;;8.57;;
47103;SDS011;32853;52.164;5.400;2023-06-22T15:18:14;16.92;;;7.35;;
47103;SDS011;32853;52.164;5.400;2023-06-22T15:20:40;12.73;;;8.05;;
47103;SDS011;32853;52.164;5.400;2023-06-22T15:23:12;13.60;;;8.48;;
47103;SDS011;32853;52.164;5.400;2023-06-22T15:25:37;15.25;;;9.13;;
47103;SDS011;32853;52.164;5.400;2023-06-22T15:28:06;13.10;;;9.57;;
47103;SDS011;32853;52.164;5.400;2023-06-22T15:30:32;11.20;;;8.73;;
47103;SDS011;32853;52.164;5.400;2023-06-22T15:32:57;15.45;;;9.48;;
47103;SDS011;32853;52.164;5.400;2023-06-22T15:35:23;11.75;;;9.18;;
47103;SDS011;32853;52.164;5.400;2023-06-22T15:37:48;11.30;;;8.48;;
47103;SDS011;32853;52.164;5.400;2023-06-22T15:40:16;15.95;;;9.82;;
47103;SDS011;32853;52.164;5.400;2023-06-22T15:42:42;15.10;;;9.05;;